Hamilton, Indiana
Current Conditions -  °F | °C
As of 12:15 PM on Friday 28 Nov 2014 (Local Time) from KANQ Reporting Station
Overcast Overcast  
Wind Chill: 12°   Ceiling: 1500
Heat Index: 21°   Visibility: 2mi
Dew Point: 18°   Wind: 8mph
Humidity: 86%   Direction: 190°S
Pressure: 30.25"   Gusts: NA
Location:  41.53°N, 84.92°W
Report Text: KANQ 281715Z AUTO 19007KT 2SM BKN015 OVC020 M06/M08 A3025 RMK
Loading
Personal Weather Stations






























Interactive Weather Map New forecast layout! Learn more

10-Day Weather Forecast

Advertisements
Track Severe Weather on mobile